createdAt,value
2022-12-03T00:00:12.175Z,100131.29
2022-12-03T00:02:41.606Z,100133.55
2022-12-03T00:05:09.862Z,100134.42
2022-12-03T00:07:37.474Z,100128.73
2022-12-03T00:10:08.774Z,100131.75
2022-12-03T00:12:37.411Z,100132.92
2022-12-03T00:15:06.361Z,100135.29
2022-12-03T00:17:33.800Z,100132.15
2022-12-03T00:20:01.259Z,100135.81
2022-12-03T00:22:28.715Z,100135.67
2022-12-03T00:24:56.460Z,100133.06
2022-12-03T00:27:24.142Z,100129.80
2022-12-03T00:29:51.646Z,100135.09
2022-12-03T00:32:19.153Z,100130.19
2022-12-03T00:34:46.620Z,100128.82
2022-12-03T00:37:14.170Z,100128.73
2022-12-03T00:39:41.628Z,100123.43
2022-12-03T00:42:09.083Z,100124.57
2022-12-03T00:44:36.542Z,100123.84
2022-12-03T00:47:04.234Z,100125.11
2022-12-03T00:49:31.967Z,100124.63
2022-12-03T00:51:59.424Z,100126.29
2022-12-03T00:54:31.587Z,100130.28
2022-12-03T00:56:59.686Z,100128.07
2022-12-03T00:59:27.219Z,100131.20
2022-12-03T01:01:54.842Z,100126.46
2022-12-03T01:04:22.423Z,100127.35
2022-12-03T01:06:49.999Z,100131.33
2022-12-03T01:09:17.557Z,100133.03
2022-12-03T01:11:47.879Z,100133.30
2022-12-03T01:14:16.815Z,100130.70
2022-12-03T01:16:44.650Z,100138.32
2022-12-03T01:19:16.208Z,100133.34
2022-12-03T01:21:44.874Z,100136.45
2022-12-03T01:24:12.447Z,100128.95
2022-12-03T01:26:39.890Z,100132.34
2022-12-03T01:29:07.489Z,100133.35
2022-12-03T01:31:53.441Z,100134.92
2022-12-03T01:34:21.101Z,100134.99
2022-12-03T01:36:48.559Z,100133.65
2022-12-03T01:39:16.016Z,100139.59
2022-12-03T01:41:43.472Z,100139.70
2022-12-03T01:44:20.147Z,100139.77
2022-12-03T01:46:47.789Z,100138.91
2022-12-03T01:49:20.102Z,100138.88
2022-12-03T01:51:48.145Z,100138.65
2022-12-03T01:54:18.079Z,100137.66
2022-12-03T01:56:45.927Z,100138.27
2022-12-03T01:59:20.755Z,100142.97
2022-12-03T02:01:48.359Z,100144.44
2022-12-03T02:04:16.949Z,100138.89
2022-12-03T02:06:45.020Z,100141.09
2022-12-03T02:09:12.966Z,100140.98
2022-12-03T02:11:42.786Z,100142.50
2022-12-03T02:14:12.906Z,100145.23
2022-12-03T02:16:40.650Z,100141.80
2022-12-03T02:19:24.119Z,100148.98
2022-12-03T02:22:14.157Z,100146.86
2022-12-03T02:24:53.150Z,100145.58
2022-12-03T02:27:20.863Z,100146.78
2022-12-03T02:29:48.309Z,100146.90
2022-12-03T02:32:15.792Z,100146.60
2022-12-03T02:34:46.689Z,100144.14
2022-12-03T02:37:17.628Z,100147.36
2022-12-03T02:39:48.156Z,100145.20
2022-12-03T02:42:35.373Z,100146.00
2022-12-03T02:45:07.644Z,100146.83
2022-12-03T02:47:56.818Z,100148.92
2022-12-03T02:50:32.053Z,100148.77
2022-12-03T02:53:00.761Z,100148.33
2022-12-03T02:55:34.928Z,100152.09
2022-12-03T02:58:04.458Z,100151.88
2022-12-03T03:00:32.243Z,100150.36
2022-12-03T03:03:00.089Z,100152.16
2022-12-03T03:05:27.541Z,100156.33
2022-12-03T03:07:55.122Z,100157.94
2022-12-03T03:10:23.379Z,100154.90
2022-12-03T03:12:51.791Z,100152.23
2022-12-03T03:15:20.030Z,100158.48
2022-12-03T03:17:47.485Z,100163.36
2022-12-03T03:20:15.263Z,100160.56
2022-12-03T03:22:43.736Z,100157.31
2022-12-03T03:25:13.242Z,100160.73
2022-12-03T03:27:41.614Z,100159.08
2022-12-03T03:30:10.311Z,100155.14
2022-12-03T03:32:37.863Z,100152.97
2022-12-03T03:35:06.030Z,100150.79
2022-12-03T03:37:33.590Z,100151.94
2022-12-03T03:40:01.046Z,100149.74
2022-12-03T03:42:30.643Z,100151.90
2022-12-03T03:44:58.420Z,100149.79
2022-12-03T03:47:26.182Z,100148.85
2022-12-03T03:49:53.643Z,100151.86
2022-12-03T03:52:22.556Z,100152.64
2022-12-03T03:54:50.064Z,100153.02
2022-12-03T03:57:17.644Z,100158.16
2022-12-03T03:59:45.207Z,100155.48
2022-12-03T04:02:31.196Z,100156.10
2022-12-03T04:04:58.653Z,100157.32
2022-12-03T04:07:26.158Z,100157.98
2022-12-03T04:09:53.768Z,100157.41
2022-12-03T04:12:40.175Z,100161.08
2022-12-03T04:15:08.706Z,100159.84
2022-12-03T04:17:36.210Z,100159.83
2022-12-03T04:20:04.183Z,100156.87
2022-12-03T04:22:40.549Z,100161.86
2022-12-03T04:25:28.070Z,100161.05
2022-12-03T04:28:14.379Z,100160.35
2022-12-03T04:30:42.892Z,100161.90
2022-12-03T04:33:29.153Z,100162.45
2022-12-03T04:35:56.623Z,100155.63
2022-12-03T04:38:24.099Z,100158.69
2022-12-03T04:41:06.682Z,100166.21
2022-12-03T04:43:34.951Z,100171.64
2022-12-03T04:46:02.643Z,100171.42
2022-12-03T04:48:30.522Z,100177.23
2022-12-03T04:50:58.346Z,100173.67
2022-12-03T04:53:25.908Z,100176.52
2022-12-03T04:55:53.465Z,100181.42
2022-12-03T04:58:21.225Z,100181.40
2022-12-03T05:00:48.709Z,100180.58
2022-12-03T05:03:16.248Z,100187.15
2022-12-03T05:05:43.706Z,100189.84
2022-12-03T05:08:11.334Z,100190.98
2022-12-03T05:10:38.917Z,100187.16
2022-12-03T05:13:06.299Z,100189.44
2022-12-03T05:15:33.727Z,100187.55
2022-12-03T05:18:01.188Z,100186.45
2022-12-03T05:20:49.632Z,100189.33
2022-12-03T05:23:20.467Z,100187.23
2022-12-03T05:25:47.923Z,100189.59
2022-12-03T05:28:15.387Z,100190.36
2022-12-03T05:30:42.921Z,100193.67
2022-12-03T05:33:10.500Z,100199.38
2022-12-03T05:35:38.059Z,100200.40
2022-12-03T05:38:05.516Z,100198.02
2022-12-03T05:40:33.077Z,100200.15
2022-12-03T05:43:03.396Z,100200.27
2022-12-03T05:45:35.981Z,100201.30
2022-12-03T05:48:06.099Z,100201.83
2022-12-03T05:50:34.885Z,100208.77
2022-12-03T05:53:14.935Z,100206.98
2022-12-03T05:55:42.501Z,100210.44
2022-12-03T05:58:10.366Z,100211.16
2022-12-03T06:00:42.637Z,100214.08
2022-12-03T06:03:10.840Z,100218.80
2022-12-03T06:05:38.571Z,100216.74
2022-12-03T06:08:06.113Z,100218.34
2022-12-03T06:10:33.684Z,100216.09
2022-12-03T06:13:01.344Z,100217.92
2022-12-03T06:15:28.839Z,100216.49
2022-12-03T06:17:56.364Z,100223.40
2022-12-03T06:20:23.821Z,100225.16
2022-12-03T06:22:51.271Z,100223.17
2022-12-03T06:25:18.832Z,100227.80
2022-12-03T06:27:47.005Z,100232.02
2022-12-03T06:30:15.281Z,100233.70
2022-12-03T06:32:42.758Z,100232.15
2022-12-03T06:35:10.300Z,100230.20
2022-12-03T06:37:38.234Z,100228.39
2022-12-03T06:40:06.814Z,100231.34
2022-12-03T06:42:34.309Z,100232.08
2022-12-03T06:45:01.787Z,100234.34
2022-12-03T06:47:30.967Z,100234.02
2022-12-03T06:49:58.459Z,100234.70
2022-12-03T06:52:27.089Z,100236.31
2022-12-03T06:54:55.144Z,100236.73
2022-12-03T06:57:22.949Z,100234.89
2022-12-03T06:59:50.744Z,100233.24
2022-12-03T07:02:18.490Z,100238.33
2022-12-03T07:04:47.064Z,100242.13
2022-12-03T07:07:14.815Z,100238.29
2022-12-03T07:09:42.309Z,100242.28
2022-12-03T07:12:09.831Z,100242.13
2022-12-03T07:14:37.289Z,100242.94
2022-12-03T07:17:04.848Z,100246.20
2022-12-03T07:19:33.047Z,100249.08
2022-12-03T07:22:01.230Z,100248.34
2022-12-03T07:24:28.747Z,100246.70
2022-12-03T07:26:56.307Z,100250.86
2022-12-03T07:29:24.895Z,100249.58
2022-12-03T07:31:52.450Z,100248.73
2022-12-03T07:34:20.050Z,100251.18
2022-12-03T07:36:47.571Z,100251.64
2022-12-03T07:39:17.480Z,100253.24
2022-12-03T07:41:44.938Z,100257.61
2022-12-03T07:44:14.771Z,100256.04
2022-12-03T07:46:43.196Z,100257.17
2022-12-03T07:49:12.554Z,100260.08
2022-12-03T07:51:40.192Z,100263.35
2022-12-03T07:54:08.065Z,100260.47
2022-12-03T07:56:35.620Z,100259.78
2022-12-03T07:59:03.175Z,100260.27
2022-12-03T08:01:30.692Z,100258.25
2022-12-03T08:03:58.297Z,100258.23
2022-12-03T08:06:26.469Z,100257.91
2022-12-03T08:08:54.025Z,100256.57
2022-12-03T08:11:21.587Z,100260.58
2022-12-03T08:13:49.246Z,100256.43
2022-12-03T08:16:20.596Z,100259.08
2022-12-03T08:18:48.766Z,100267.50
2022-12-03T08:21:20.320Z,100268.87
2022-12-03T08:23:47.986Z,100269.16
2022-12-03T08:26:26.293Z,100270.30
2022-12-03T08:28:53.961Z,100267.41
2022-12-03T08:31:29.372Z,100265.89
2022-12-03T08:34:34.844Z,100261.14
2022-12-03T08:37:09.027Z,100260.13
2022-12-03T08:39:39.081Z,100260.10
2022-12-03T08:42:35.526Z,100254.11
2022-12-03T08:45:32.441Z,100256.34
2022-12-03T08:48:01.152Z,100257.33
2022-12-03T08:50:29.969Z,100259.53
2022-12-03T08:53:22.688Z,100260.04
2022-12-03T08:56:26.387Z,100265.83
2022-12-03T08:59:18.429Z,100262.83
2022-12-03T09:01:46.560Z,100259.42
2022-12-03T09:04:31.011Z,100258.00
2022-12-03T09:06:58.915Z,100259.28
2022-12-03T09:09:26.582Z,100257.40
2022-12-03T09:11:54.388Z,100256.23
2022-12-03T09:14:23.068Z,100257.08
2022-12-03T09:16:52.477Z,100255.57
2022-12-03T09:19:20.182Z,100254.86
2022-12-03T09:21:47.757Z,100251.11
2022-12-03T09:24:15.213Z,100250.84
2022-12-03T09:26:42.664Z,100251.86
2022-12-03T09:29:12.441Z,100246.74
2022-12-03T09:31:40.918Z,100246.38
2022-12-03T09:34:08.620Z,100246.90
2022-12-03T09:36:37.175Z,100245.17
2022-12-03T09:39:04.868Z,100247.96
2022-12-03T09:41:32.322Z,100247.70
2022-12-03T09:44:04.507Z,100246.09
2022-12-03T09:46:34.440Z,100246.84
2022-12-03T09:49:02.780Z,100246.73
2022-12-03T09:51:33.141Z,100247.98
2022-12-03T09:54:02.408Z,100254.67
2022-12-03T09:56:29.968Z,100253.35
2022-12-03T09:58:57.630Z,100258.95
2022-12-03T10:01:27.982Z,100261.44
2022-12-03T10:03:58.816Z,100264.33
2022-12-03T10:06:29.316Z,100266.21
2022-12-03T10:08:57.689Z,100265.17
2022-12-03T10:11:25.971Z,100265.55
2022-12-03T10:13:53.860Z,100268.79
2022-12-03T10:16:21.499Z,100268.71
2022-12-03T10:18:51.718Z,100266.20
2022-12-03T10:21:51.841Z,100269.18
2022-12-03T10:24:24.589Z,100270.48
2022-12-03T10:26:53.631Z,100270.02
2022-12-03T10:29:25.811Z,100273.40
2022-12-03T10:31:59.370Z,100273.52
2022-12-03T10:34:31.655Z,100280.80
2022-12-03T10:37:18.741Z,100278.28
2022-12-03T10:39:56.021Z,100278.04
2022-12-03T10:42:25.216Z,100276.54
2022-12-03T10:45:25.273Z,100278.33
2022-12-03T10:48:04.344Z,100276.75
2022-12-03T10:50:32.167Z,100274.55
2022-12-03T10:52:59.721Z,100279.75
2022-12-03T10:55:28.925Z,100278.88
2022-12-03T10:58:00.878Z,100283.33
2022-12-03T11:00:28.339Z,100280.10
2022-12-03T11:02:57.132Z,100281.58
2022-12-03T11:05:31.341Z,100277.70
2022-12-03T11:08:01.217Z,100276.66
2022-12-03T11:10:28.816Z,100275.38
2022-12-03T11:13:28.220Z,100274.60
2022-12-03T11:15:57.878Z,100276.34
2022-12-03T11:18:38.086Z,100273.85
2022-12-03T11:21:13.226Z,100276.46
2022-12-03T11:23:46.886Z,100278.05
2022-12-03T11:26:37.631Z,100282.30
2022-12-03T11:29:06.011Z,100274.68
2022-12-03T11:31:47.719Z,100279.20
2022-12-03T11:34:21.540Z,100276.05
2022-12-03T11:37:11.588Z,100277.96
2022-12-03T11:39:45.495Z,100279.90
2022-12-03T11:42:38.556Z,100275.71
2022-12-03T11:45:06.026Z,100276.09
2022-12-03T11:47:43.813Z,100277.60
2022-12-03T11:50:21.539Z,100279.66
2022-12-03T11:52:53.473Z,100277.05
2022-12-03T11:55:30.689Z,100278.71
2022-12-03T11:58:02.816Z,100279.31
2022-12-03T12:00:30.379Z,100282.71
2022-12-03T12:02:58.684Z,100286.77
2022-12-03T12:05:30.517Z,100290.37
2022-12-03T12:07:58.176Z,100290.04
2022-12-03T12:10:42.326Z,100293.75
2022-12-03T12:13:35.587Z,100293.50
2022-12-03T12:16:05.465Z,100285.91
2022-12-03T12:18:42.394Z,100292.54
2022-12-03T12:21:44.759Z,100292.11
2022-12-03T12:24:51.942Z,100297.17
2022-12-03T12:27:47.508Z,100296.23
2022-12-03T12:30:16.747Z,100293.04
2022-12-03T12:32:51.956Z,100291.70
2022-12-03T12:35:21.276Z,100293.59
2022-12-03T12:37:58.230Z,100295.25
2022-12-03T12:40:29.678Z,100293.62
2022-12-03T12:42:59.124Z,100293.06
2022-12-03T12:45:28.264Z,100292.52
2022-12-03T12:48:02.029Z,100295.38
2022-12-03T12:50:32.232Z,100290.63
2022-12-03T12:53:02.560Z,100293.66
2022-12-03T12:55:29.571Z,100292.98
2022-12-03T12:57:59.004Z,100291.98
2022-12-03T13:00:25.976Z,100288.70
2022-12-03T13:03:00.973Z,100292.33
2022-12-03T13:05:45.295Z,100295.73
2022-12-03T13:08:24.817Z,100297.34
2022-12-03T13:10:53.781Z,100299.55
2022-12-03T13:13:29.310Z,100303.83
2022-12-03T13:15:56.214Z,100303.85
2022-12-03T13:18:33.317Z,100303.63
2022-12-03T13:21:07.002Z,100299.94
2022-12-03T13:23:34.951Z,100299.81
2022-12-03T13:26:22.319Z,100304.88
2022-12-03T13:28:52.345Z,100307.73
2022-12-03T13:31:23.713Z,100309.81
2022-12-03T13:33:51.209Z,100310.99
2022-12-03T13:36:19.836Z,100314.70
2022-12-03T13:38:46.798Z,100316.80
2022-12-03T13:41:36.192Z,100317.12
2022-12-03T13:44:11.171Z,100321.30
2022-12-03T13:46:38.031Z,100316.49
2022-12-03T13:49:22.798Z,100318.29
2022-12-03T13:51:49.891Z,100318.77
2022-12-03T13:54:22.288Z,100321.73
2022-12-03T13:56:50.177Z,100325.95
2022-12-03T13:59:20.363Z,100327.37
2022-12-03T14:01:50.298Z,100331.59
2022-12-03T14:04:17.474Z,100332.17
2022-12-03T14:06:44.411Z,100334.75
2022-12-03T14:09:11.559Z,100337.00
2022-12-03T14:11:57.245Z,100338.67
2022-12-03T14:14:24.205Z,100336.73
2022-12-03T14:16:59.567Z,100334.93
2022-12-03T14:19:27.194Z,100332.09
2022-12-03T14:21:54.133Z,100330.27
2022-12-03T14:24:21.140Z,100335.08
2022-12-03T14:26:48.124Z,100339.32
2022-12-03T14:29:14.975Z,100341.98
2022-12-03T14:31:41.994Z,100341.54
2022-12-03T14:34:09.153Z,100347.48
2022-12-03T14:36:36.107Z,100344.29
2022-12-03T14:39:03.052Z,100351.35
2022-12-03T14:41:48.635Z,100351.67
2022-12-03T14:44:15.500Z,100349.32
2022-12-03T14:46:42.541Z,100348.05
2022-12-03T14:49:09.573Z,100350.77
2022-12-03T14:51:36.549Z,100348.05
2022-12-03T14:54:03.615Z,100354.95
2022-12-03T14:56:30.610Z,100346.32
2022-12-03T14:58:57.481Z,100351.60
2022-12-03T15:01:24.431Z,100353.44
2022-12-03T15:03:51.645Z,100353.00
2022-12-03T15:06:18.696Z,100357.41
2022-12-03T15:08:46.214Z,100359.45
2022-12-03T15:11:13.120Z,100363.02
2022-12-03T15:13:40.040Z,100361.92
2022-12-03T15:16:07.705Z,100356.55
2022-12-03T15:18:35.157Z,100357.04
2022-12-03T15:21:01.999Z,100361.17
2022-12-03T15:23:28.946Z,100362.86
2022-12-03T15:25:55.782Z,100359.48
2022-12-03T15:28:23.283Z,100365.63
2022-12-03T15:30:50.983Z,100362.51
2022-12-03T15:33:18.084Z,100370.46
2022-12-03T15:35:45.043Z,100370.20
2022-12-03T15:38:12.202Z,100370.32
2022-12-03T15:40:39.511Z,100374.48
2022-12-03T15:43:07.357Z,100374.59
2022-12-03T15:45:34.626Z,100375.99
2022-12-03T15:48:01.796Z,100375.33
2022-12-03T15:50:28.927Z,100377.63
2022-12-03T15:52:56.071Z,100380.91
2022-12-03T15:55:23.017Z,100382.46
2022-12-03T15:57:50.108Z,100387.58
2022-12-03T16:00:18.027Z,100391.37
2022-12-03T16:02:50.765Z,100390.11
2022-12-03T16:05:19.440Z,100392.70
2022-12-03T16:07:46.427Z,100390.63
2022-12-03T16:10:13.896Z,100387.66
2022-12-03T16:12:40.840Z,100391.14
2022-12-03T16:15:08.409Z,100394.11
2022-12-03T16:17:35.289Z,100394.14
2022-12-03T16:20:02.356Z,100397.34
2022-12-03T16:22:29.539Z,100395.55
2022-12-03T16:24:56.409Z,100398.70
2022-12-03T16:27:25.803Z,100401.81
2022-12-03T16:29:53.523Z,100402.98
2022-12-03T16:32:20.617Z,100401.26
2022-12-03T16:34:47.540Z,100397.79
2022-12-03T16:37:14.483Z,100403.70
2022-12-03T16:39:47.506Z,100406.06
2022-12-03T16:42:17.500Z,100403.20
2022-12-03T16:45:03.126Z,100401.20
2022-12-03T16:47:33.835Z,100407.44
2022-12-03T16:50:05.840Z,100407.05
2022-12-03T16:52:32.791Z,100412.06
2022-12-03T16:54:59.964Z,100413.39
2022-12-03T16:57:33.136Z,100420.66
2022-12-03T17:00:01.149Z,100421.96
2022-12-03T17:02:28.175Z,100419.27
2022-12-03T17:04:55.222Z,100423.80
2022-12-03T17:07:22.367Z,100423.08
2022-12-03T17:09:49.617Z,100429.89
2022-12-03T17:12:16.524Z,100428.23
2022-12-03T17:14:43.921Z,100427.30
2022-12-03T17:17:10.867Z,100425.90
2022-12-03T17:19:39.956Z,100426.47
2022-12-03T17:22:07.010Z,100430.52
2022-12-03T17:24:34.096Z,100426.52
2022-12-03T17:27:00.998Z,100422.21
2022-12-03T17:29:27.944Z,100431.36
2022-12-03T17:31:55.029Z,100430.45
2022-12-03T17:34:22.133Z,100432.59
2022-12-03T17:36:49.037Z,100435.00
2022-12-03T17:39:16.028Z,100438.74
2022-12-03T17:41:42.965Z,100435.77
2022-12-03T17:44:12.056Z,100434.83
2022-12-03T17:46:41.010Z,100431.23
2022-12-03T17:49:08.142Z,100434.98
2022-12-03T17:51:35.079Z,100430.40
2022-12-03T17:54:02.403Z,100429.81
2022-12-03T17:56:29.368Z,100431.59
2022-12-03T17:58:57.417Z,100432.36
2022-12-03T18:01:24.397Z,100427.98
2022-12-03T18:03:51.655Z,100428.62
2022-12-03T18:06:18.637Z,100423.06
2022-12-03T18:08:45.616Z,100432.84
2022-12-03T18:11:12.562Z,100436.13
2022-12-03T18:13:39.527Z,100442.20
2022-12-03T18:16:06.807Z,100441.51
2022-12-03T18:18:33.757Z,100441.19
2022-12-03T18:21:04.465Z,100441.79
2022-12-03T18:23:31.469Z,100440.02
2022-12-03T18:25:58.296Z,100439.13
2022-12-03T18:28:25.263Z,100440.48
2022-12-03T18:30:52.877Z,100445.89
2022-12-03T18:33:21.615Z,100448.25
2022-12-03T18:35:48.753Z,100450.30
2022-12-03T18:40:12.374Z,100454.48
2022-12-03T18:42:39.665Z,100460.84
2022-12-03T18:45:07.367Z,100459.10
2022-12-03T18:47:34.321Z,100459.66
2022-12-03T18:50:01.309Z,100464.14
2022-12-03T18:52:28.385Z,100468.11
2022-12-03T18:54:56.532Z,100469.05
2022-12-03T18:57:23.611Z,100469.21
2022-12-03T18:59:50.655Z,100469.96
2022-12-03T19:03:00.533Z,100473.50
2022-12-03T19:05:07.739Z,100475.96
2022-12-03T19:07:34.790Z,100480.34
2022-12-03T19:10:02.092Z,100477.08
2022-12-03T19:12:29.086Z,100481.65
2022-12-03T19:14:55.980Z,100483.63
2022-12-03T19:17:23.130Z,100485.21
2022-12-03T19:19:50.004Z,100486.42
2022-12-03T19:22:16.906Z,100483.23
2022-12-03T19:24:44.007Z,100486.48
2022-12-03T19:27:11.010Z,100487.96
2022-12-03T19:29:37.964Z,100485.82
2022-12-03T19:32:05.270Z,100485.03
2022-12-03T19:34:32.455Z,100473.95
2022-12-03T19:36:59.336Z,100481.60
2022-12-03T19:39:26.340Z,100481.63
2022-12-03T19:41:53.319Z,100492.05
2022-12-03T19:44:20.441Z,100496.41
2022-12-03T19:46:49.234Z,100501.18
2022-12-03T19:49:18.776Z,100508.77
2022-12-03T19:51:45.684Z,100506.77
2022-12-03T19:54:12.928Z,100510.15
2022-12-03T19:56:40.096Z,100513.60
2022-12-03T19:59:07.868Z,100510.00
2022-12-03T20:01:35.701Z,100508.45
2022-12-03T20:04:03.147Z,100501.32
2022-12-03T20:06:31.981Z,100504.89
2022-12-03T20:09:00.154Z,100495.56
2022-12-03T20:11:28.855Z,100497.53
2022-12-03T20:14:01.116Z,100495.77
2022-12-03T20:16:28.456Z,100496.41
2022-12-03T20:19:00.232Z,100495.94
2022-12-03T20:21:28.625Z,100493.84
2022-12-03T20:23:55.558Z,100497.16
2022-12-03T20:26:22.508Z,100497.65
2022-12-03T20:28:49.503Z,100497.13
2022-12-03T20:31:18.059Z,100503.48
2022-12-03T20:33:46.873Z,100498.21
2022-12-03T20:36:14.711Z,100496.95
2022-12-03T20:38:41.838Z,100493.25
2022-12-03T20:41:11.013Z,100493.80
2022-12-03T20:43:37.980Z,100495.70
2022-12-03T20:46:16.009Z,100502.40
2022-12-03T20:48:43.296Z,100490.35
2022-12-03T20:51:11.811Z,100497.21
2022-12-03T20:53:38.776Z,100497.83
2022-12-03T20:56:05.952Z,100503.88
2022-12-03T20:58:32.795Z,100506.61
2022-12-03T21:01:16.037Z,100509.90
2022-12-03T21:03:43.970Z,100515.38
2022-12-03T21:06:11.468Z,100516.23
2022-12-03T21:08:42.664Z,100525.93
2022-12-03T21:11:14.896Z,100524.39
2022-12-03T21:13:43.931Z,100528.03
2022-12-03T21:16:13.109Z,100529.75
2022-12-03T21:18:40.179Z,100532.56
2022-12-03T21:21:07.228Z,100530.80
2022-12-03T21:23:34.903Z,100533.21
2022-12-03T21:26:06.177Z,100532.51
2022-12-03T21:28:33.417Z,100533.73
2022-12-03T21:31:05.911Z,100536.80
2022-12-03T21:33:32.932Z,100535.15
2022-12-03T21:36:00.274Z,100524.45
2022-12-03T21:38:27.901Z,100529.80
2022-12-03T21:40:55.057Z,100527.39
2022-12-03T21:43:22.304Z,100528.58
2022-12-03T21:45:49.492Z,100531.16
2022-12-03T21:48:16.576Z,100533.16
2022-12-03T21:50:43.588Z,100531.23
2022-12-03T21:53:10.742Z,100533.75
2022-12-03T21:55:41.050Z,100528.54
2022-12-03T21:58:08.423Z,100522.58
2022-12-03T22:00:35.620Z,100525.02
2022-12-03T22:03:02.522Z,100514.67
2022-12-03T22:05:29.539Z,100520.96
2022-12-03T22:07:56.454Z,100523.77
2022-12-03T22:10:23.494Z,100519.91
2022-12-03T22:12:50.430Z,100523.12
2022-12-03T22:15:19.409Z,100523.80
2022-12-03T22:17:47.017Z,100530.09
2022-12-03T22:20:14.040Z,100529.86
2022-12-03T22:22:41.076Z,100531.98
2022-12-03T22:25:08.186Z,100529.73
2022-12-03T22:27:35.038Z,100530.73
2022-12-03T22:30:02.515Z,100528.76
2022-12-03T22:32:29.354Z,100527.16
2022-12-03T22:34:56.243Z,100529.70
2022-12-03T22:37:23.086Z,100537.48
2022-12-03T22:39:49.943Z,100532.05
2022-12-03T22:42:16.829Z,100531.57
2022-12-03T22:44:43.706Z,100531.72
2022-12-03T22:47:10.541Z,100534.48
2022-12-03T22:49:37.379Z,100541.81
2022-12-03T22:52:04.430Z,100536.75
2022-12-03T22:54:31.340Z,100539.84
2022-12-03T22:56:58.228Z,100544.33
2022-12-03T22:59:25.061Z,100544.30
2022-12-03T23:01:51.941Z,100546.81
2022-12-03T23:04:18.850Z,100549.98
2022-12-03T23:06:45.826Z,100551.20
2022-12-03T23:09:12.643Z,100548.66
2022-12-03T23:11:39.577Z,100546.27
2022-12-03T23:14:06.475Z,100535.48
2022-12-03T23:16:33.996Z,100537.22
2022-12-03T23:19:01.242Z,100543.47
2022-12-03T23:21:30.758Z,100543.19
2022-12-03T23:23:59.110Z,100541.50
2022-12-03T23:26:26.332Z,100542.35
2022-12-03T23:28:53.205Z,100541.81
2022-12-03T23:31:24.446Z,100544.33
2022-12-03T23:33:52.374Z,100541.06
2022-12-03T23:36:19.392Z,100547.65
2022-12-03T23:38:46.403Z,100550.91
2022-12-03T23:41:18.370Z,100554.61
2022-12-03T23:43:45.358Z,100555.27
2022-12-03T23:46:14.813Z,100556.66
2022-12-03T23:48:42.064Z,100565.14
2022-12-03T23:51:10.673Z,100562.54
2022-12-03T23:53:37.627Z,100559.77
2022-12-03T23:56:12.673Z,100559.25
2022-12-03T23:58:39.606Z,100560.95
